Lexington Park, Maryland
Current Conditions -  °F | °C
As of 5:52 PM on Thursday 23 Oct 2014 (Local Time) from KNHK Reporting Station
Broken Clouds Broken Clouds  
Wind Chill: 61°   Ceiling: 5000
Heat Index: 61°   Visibility: 10mi
Dew Point: 44°   Wind: 17mph
Humidity: 54%   Direction: 290°WNW
Pressure: 29.84"   Gusts: 30mph
Location:  38.27°N, 76.45°W
Report Text: KNHK 232152Z 29015G26KT 10SM BKN050 BKN090 16/07 A2984 RMK AO2 PK WND 30028/2121 SLP105 T01610067
Loading
Personal Weather Stations






























Interactive Weather Map
Tropical Storm Tracking
New forecast layout! Learn more

10-Day Weather Forecast

Advertisements
Track Severe Weather on mobile